createdAt,value
2022-12-04T00:02:14.346Z,100626.16
2022-12-04T00:04:43.410Z,100629.91
2022-12-04T00:07:12.138Z,100630.03
2022-12-04T00:09:41.079Z,100625.78
2022-12-04T00:12:09.800Z,100627.72
2022-12-04T00:15:00.818Z,100626.88
2022-12-04T00:17:28.834Z,100623.63
2022-12-04T00:19:57.904Z,100613.13
2022-12-04T00:22:26.702Z,100614.94
2022-12-04T00:24:56.691Z,100610.72
2022-12-04T00:27:25.475Z,100609.03
2022-12-04T00:29:55.827Z,100597.69
2022-12-04T00:32:24.688Z,100584.56
2022-12-04T00:34:53.885Z,100568.75
2022-12-04T00:37:22.787Z,100561.84
2022-12-04T00:39:51.867Z,100564.50
2022-12-04T00:42:20.560Z,100559.34
2022-12-04T00:44:49.596Z,100558.63
2022-12-04T00:47:18.102Z,100554.28
2022-12-04T00:49:47.755Z,100545.81
2022-12-04T00:52:16.506Z,100548.38
2022-12-04T00:54:46.760Z,100531.13
2022-12-04T00:57:15.457Z,100538.13
2022-12-04T00:59:44.531Z,100535.47
2022-12-04T01:02:13.259Z,100541.72
2022-12-04T01:04:42.295Z,100529.56
2022-12-04T01:07:11.042Z,100531.38
2022-12-04T01:09:40.165Z,100524.38
2022-12-04T01:12:09.128Z,100526.31
2022-12-04T01:14:38.137Z,100517.50
2022-12-04T01:17:06.759Z,100513.16
2022-12-04T01:19:35.778Z,100514.25
2022-12-04T01:22:04.458Z,100517.88
2022-12-04T01:24:33.459Z,100508.34
2022-12-04T01:27:02.127Z,100510.88
2022-12-04T01:29:31.327Z,100510.28
2022-12-04T01:31:59.993Z,100502.19
2022-12-04T01:34:29.110Z,100504.03
2022-12-04T01:36:58.419Z,100491.00
2022-12-04T01:39:28.837Z,100493.63
2022-12-04T01:41:57.429Z,100491.00
2022-12-04T01:44:27.164Z,100486.78
2022-12-04T01:47:00.730Z,100484.34
2022-12-04T01:49:44.846Z,100493.03
2022-12-04T01:52:20.424Z,100486.06
2022-12-04T01:55:00.161Z,100471.09
2022-12-04T01:57:31.769Z,100462.41
2022-12-04T02:00:14.077Z,100451.81
2022-12-04T02:02:46.582Z,100460.97
2022-12-04T02:05:19.249Z,100459.03
2022-12-04T02:07:50.877Z,100454.13
2022-12-04T02:10:24.765Z,100451.19
2022-12-04T02:13:04.706Z,100424.22
2022-12-04T02:15:54.718Z,100429.25
2022-12-04T02:18:46.709Z,100423.97
2022-12-04T02:21:41.365Z,100446.16
2022-12-04T02:24:45.332Z,100433.00
2022-12-04T02:27:41.968Z,100427.81
2022-12-04T02:30:15.250Z,100420.72
2022-12-04T02:33:18.502Z,100424.34
2022-12-04T02:36:02.718Z,100413.84
2022-12-04T02:38:39.299Z,100405.06
2022-12-04T02:41:31.410Z,100393.09
2022-12-04T02:44:15.721Z,100399.00
2022-12-04T02:46:46.348Z,100397.31
2022-12-04T02:49:22.584Z,100393.81
2022-12-04T02:51:51.657Z,100376.47
2022-12-04T02:54:41.725Z,100373.69
2022-12-04T02:57:16.784Z,100356.09
2022-12-04T02:59:46.347Z,100355.13
2022-12-04T03:02:59.834Z,100352.72
2022-12-04T03:05:42.674Z,100354.41
2022-12-04T03:08:19.926Z,100358.00
2022-12-04T03:10:53.953Z,100348.50
2022-12-04T03:13:37.570Z,100346.69
2022-12-04T03:16:24.738Z,100344.16
2022-12-04T03:19:22.203Z,100339.72
2022-12-04T03:21:56.736Z,100325.75
2022-12-04T03:24:26.735Z,100329.22
2022-12-04T03:27:18.743Z,100318.63
2022-12-04T03:29:57.850Z,100306.31
2022-12-04T03:32:44.843Z,100296.94
2022-12-04T03:35:26.455Z,100307.31
2022-12-04T03:38:18.705Z,100299.69
2022-12-04T03:41:18.565Z,100302.13
2022-12-04T03:44:22.232Z,100298.50
2022-12-04T03:47:17.193Z,100300.41
2022-12-04T03:50:11.195Z,100298.75
2022-12-04T03:52:55.246Z,100294.56
2022-12-04T03:55:46.052Z,100291.75
2022-12-04T03:58:22.753Z,100288.38
2022-12-04T04:00:52.431Z,100288.38
2022-12-04T04:03:34.375Z,100287.53
2022-12-04T04:06:10.931Z,100280.56
2022-12-04T04:08:41.916Z,100287.66
2022-12-04T04:11:39.203Z,100288.66
2022-12-04T04:15:03.488Z,100279.72
2022-12-04T04:17:53.374Z,100283.34
2022-12-04T04:20:49.350Z,100272.88
2022-12-04T04:23:36.517Z,100274.69
2022-12-04T04:26:05.753Z,100279.13
2022-12-04T04:28:40.355Z,100267.69
2022-12-04T04:31:30.408Z,100269.63
2022-12-04T04:34:36.217Z,100276.13
2022-12-04T04:37:27.133Z,100278.56
2022-12-04T04:40:30.152Z,100293.59
2022-12-04T04:43:21.430Z,100287.44
2022-12-04T04:46:13.453Z,100289.50
2022-12-04T04:48:46.324Z,100290.09
2022-12-04T04:51:15.073Z,100282.41
2022-12-04T04:53:53.216Z,100267.34
2022-12-04T04:56:21.954Z,100269.28
2022-12-04T04:58:51.944Z,100274.59
2022-12-04T05:01:23.122Z,100268.41
2022-12-04T05:03:52.087Z,100271.22
2022-12-04T05:06:20.678Z,100273.00
2022-12-04T05:08:49.748Z,100258.81
2022-12-04T05:11:18.463Z,100267.78
2022-12-04T05:13:47.406Z,100268.88
2022-12-04T05:16:16.516Z,100263.88
2022-12-04T05:19:04.090Z,100269.66
2022-12-04T05:21:33.232Z,100268.44
2022-12-04T05:24:02.167Z,100260.59
2022-12-04T05:26:30.792Z,100255.75
2022-12-04T05:28:59.803Z,100249.66
2022-12-04T05:31:28.455Z,100250.59
2022-12-04T05:33:57.646Z,100235.09
2022-12-04T05:36:26.112Z,100236.28
2022-12-04T05:38:55.083Z,100235.81
2022-12-04T05:41:24.254Z,100251.47
2022-12-04T05:43:53.347Z,100253.91
2022-12-04T05:46:21.988Z,100256.22
2022-12-04T05:48:52.365Z,100252.69
2022-12-04T05:51:20.973Z,100256.94
2022-12-04T05:53:53.013Z,100253.19
2022-12-04T05:56:21.684Z,100257.75
2022-12-04T05:58:50.733Z,100261.41
2022-12-04T06:01:23.399Z,100267.72
2022-12-04T06:03:52.115Z,100297.22
2022-12-04T06:06:25.896Z,100281.44
2022-12-04T06:08:57.344Z,100278.50
2022-12-04T06:11:31.767Z,100268.84
2022-12-04T06:14:02.843Z,100256.03
2022-12-04T06:16:35.640Z,100258.94
2022-12-04T06:19:19.479Z,100256.72
2022-12-04T06:21:51.363Z,100267.38
2022-12-04T06:24:24.642Z,100271.56
2022-12-04T06:27:26.199Z,100277.56
2022-12-04T06:29:47.345Z,100280.78
2022-12-04T06:32:21.536Z,100276.44
2022-12-04T06:34:53.312Z,100285.69
2022-12-04T06:37:24.418Z,100282.59
2022-12-04T06:39:53.812Z,100289.84
2022-12-04T06:42:22.863Z,100285.22
2022-12-04T06:44:51.943Z,100305.94
2022-12-04T06:47:20.625Z,100305.38
2022-12-04T06:49:52.628Z,100308.47
2022-12-04T06:52:21.631Z,100321.47
2022-12-04T06:54:51.982Z,100326.38
2022-12-04T06:57:20.641Z,100326.03
2022-12-04T06:59:49.813Z,100330.81
2022-12-04T07:02:18.541Z,100332.72
2022-12-04T07:04:48.846Z,100338.47
2022-12-04T07:07:18.073Z,100337.16
2022-12-04T07:09:47.997Z,100338.16
2022-12-04T07:12:16.669Z,100323.56
2022-12-04T07:14:46.908Z,100319.34
2022-12-04T07:17:15.609Z,100319.34
2022-12-04T07:19:46.272Z,100327.56
2022-12-04T07:22:16.254Z,100339.44
2022-12-04T07:24:45.295Z,100342.34
2022-12-04T07:27:13.974Z,100354.94
2022-12-04T07:29:44.525Z,100350.72
2022-12-04T07:32:13.815Z,100352.69
2022-12-04T07:34:42.983Z,100350.16
2022-12-04T07:37:11.639Z,100364.41
2022-12-04T07:39:40.807Z,100369.72
2022-12-04T07:42:09.754Z,100369.97
2022-12-04T07:44:38.923Z,100367.72
2022-12-04T07:47:07.843Z,100359.88
2022-12-04T07:49:37.760Z,100357.59
2022-12-04T07:52:06.801Z,100367.50
2022-12-04T07:54:36.774Z,100368.59
2022-12-04T07:57:07.085Z,100363.69
2022-12-04T07:59:37.481Z,100363.09
2022-12-04T08:02:07.360Z,100372.03
2022-12-04T08:04:38.297Z,100379.28
2022-12-04T08:07:07.960Z,100382.09
2022-12-04T08:09:37.113Z,100375.91
2022-12-04T08:12:06.027Z,100388.59
2022-12-04T08:14:36.456Z,100390.41
2022-12-04T08:17:05.100Z,100382.97
2022-12-04T08:19:34.480Z,100378.75
2022-12-04T08:22:03.277Z,100388.06
2022-12-04T08:24:32.285Z,100410.25
2022-12-04T08:27:01.044Z,100429.69
2022-12-04T08:29:31.483Z,100431.50
2022-12-04T08:32:00.131Z,100432.47
2022-12-04T08:34:29.164Z,100429.22
2022-12-04T08:36:58.074Z,100428.50
2022-12-04T08:39:27.164Z,100428.63
2022-12-04T08:41:57.333Z,100419.22
2022-12-04T08:44:27.675Z,100426.59
2022-12-04T08:46:56.419Z,100429.38
2022-12-04T08:49:25.543Z,100426.97
2022-12-04T08:51:54.235Z,100436.72
2022-12-04T08:54:23.421Z,100427.22
2022-12-04T08:56:52.154Z,100421.91
2022-12-04T08:59:21.178Z,100437.94
2022-12-04T09:01:53.938Z,100452.91
2022-12-04T09:04:23.014Z,100457.50
2022-12-04T09:06:51.562Z,100458.44
2022-12-04T09:09:21.635Z,100469.19
2022-12-04T09:11:50.316Z,100471.13
2022-12-04T09:14:26.020Z,100478.22
2022-12-04T09:16:54.684Z,100481.59
2022-12-04T09:19:24.924Z,100482.69
2022-12-04T09:21:53.536Z,100485.22
2022-12-04T09:24:22.613Z,100488.00
2022-12-04T09:26:51.366Z,100485.47
2022-12-04T09:29:21.988Z,100487.28
2022-12-04T09:31:50.603Z,100485.81
2022-12-04T09:34:19.720Z,100489.94
2022-12-04T09:36:49.157Z,100488.94
2022-12-04T09:39:18.155Z,100485.47
2022-12-04T09:42:22.065Z,100488.00
2022-12-04T09:45:05.153Z,100491.38
2022-12-04T09:47:58.737Z,100493.19
2022-12-04T09:50:55.093Z,100500.31
2022-12-04T09:53:30.604Z,100505.63
2022-12-04T09:56:02.756Z,100504.75
2022-12-04T09:58:42.165Z,100500.44
2022-12-04T10:01:26.192Z,100495.44
2022-12-04T10:03:58.808Z,100484.38
2022-12-04T10:06:44.807Z,100488.09
2022-12-04T10:09:23.183Z,100504.16
2022-12-04T10:12:15.773Z,100509.69
2022-12-04T10:15:05.534Z,100503.16
2022-12-04T10:17:55.438Z,100516.19
2022-12-04T10:20:39.145Z,100524.63
2022-12-04T10:23:40.043Z,100526.41
2022-12-04T10:26:17.883Z,100518.94
2022-12-04T10:29:01.793Z,100518.13
2022-12-04T10:31:31.819Z,100513.66
2022-12-04T10:34:29.684Z,100503.88
2022-12-04T10:37:10.653Z,100511.59
2022-12-04T10:39:52.117Z,100518.72
2022-12-04T10:42:36.036Z,100520.63
2022-12-04T10:45:07.223Z,100512.22
2022-12-04T10:47:36.382Z,100520.28
2022-12-04T10:50:18.696Z,100522.81
2022-12-04T10:52:47.455Z,100531.84
2022-12-04T10:55:16.929Z,100524.56
2022-12-04T10:57:47.133Z,100521.81
2022-12-04T11:00:34.294Z,100523.59
2022-12-04T11:03:20.605Z,100517.69
2022-12-04T11:06:09.197Z,100516.19
2022-12-04T11:08:44.075Z,100518.94
2022-12-04T11:11:15.069Z,100528.56
2022-12-04T11:13:43.794Z,100530.19
2022-12-04T11:16:43.113Z,100535.50
2022-12-04T11:19:32.517Z,100530.91
2022-12-04T11:22:14.013Z,100544.78
2022-12-04T11:24:45.232Z,100540.03
2022-12-04T11:27:33.654Z,100547.63
2022-12-04T11:30:04.103Z,100551.13
2022-12-04T11:32:34.313Z,100549.69
2022-12-04T11:35:18.643Z,100552.25
2022-12-04T11:38:23.957Z,100547.88
2022-12-04T11:40:54.844Z,100547.56
2022-12-04T11:43:29.338Z,100541.13
2022-12-04T11:46:02.728Z,100539.97
2022-12-04T11:48:33.287Z,100535.50
2022-12-04T11:51:14.736Z,100537.78
2022-12-04T11:54:29.887Z,100541.53
2022-12-04T11:57:42.217Z,100549.03
2022-12-04T12:00:29.255Z,100546.78
2022-12-04T12:03:21.212Z,100555.13
2022-12-04T12:06:08.055Z,100547.69
2022-12-04T12:09:23.349Z,100556.59
2022-12-04T12:12:27.278Z,100551.69
2022-12-04T12:15:10.547Z,100564.25
2022-12-04T12:18:43.909Z,100560.00
2022-12-04T12:21:23.019Z,100566.28
2022-12-04T12:24:02.038Z,100567.38
2022-12-04T12:27:22.085Z,100572.81
2022-12-04T12:30:17.435Z,100570.41
2022-12-04T12:33:20.324Z,100570.78
2022-12-04T12:35:58.538Z,100580.06
2022-12-04T12:38:41.979Z,100580.91
2022-12-04T12:41:17.116Z,100582.00
2022-12-04T12:44:03.064Z,100580.19
2022-12-04T12:46:41.008Z,100582.59
2022-12-04T12:49:18.082Z,100574.03
2022-12-04T12:51:55.995Z,100579.22
2022-12-04T12:54:39.760Z,100578.59
2022-12-04T12:57:20.340Z,100571.88
2022-12-04T12:59:54.351Z,100574.78
2022-12-04T13:02:29.700Z,100584.56
2022-12-04T13:05:01.794Z,100586.34
2022-12-04T13:07:49.084Z,100588.56
2022-12-04T13:10:24.410Z,100589.28
2022-12-04T13:13:07.550Z,100596.25
2022-12-04T13:15:42.378Z,100598.19
2022-12-04T13:18:20.860Z,100603.88
2022-12-04T13:20:55.500Z,100613.50
2022-12-04T13:23:49.766Z,100604.00
2022-12-04T13:27:07.890Z,100602.31
2022-12-04T13:30:09.254Z,100600.63
2022-12-04T13:33:29.545Z,100613.06
2022-12-04T13:36:25.395Z,100601.34
2022-12-04T13:39:30.410Z,100618.84
2022-12-04T13:42:04.529Z,100620.41
2022-12-04T13:44:35.101Z,100631.75
2022-12-04T13:47:08.170Z,100639.22
2022-12-04T13:49:38.878Z,100641.50
2022-12-04T13:52:36.843Z,100633.31
2022-12-04T13:55:06.171Z,100643.66
2022-12-04T13:57:35.348Z,100648.63
2022-12-04T14:00:09.091Z,100634.13
2022-12-04T14:02:49.968Z,100652.44
2022-12-04T14:05:25.357Z,100642.81
2022-12-04T14:08:08.529Z,100639.16
2022-12-04T14:10:38.463Z,100643.53
2022-12-04T14:13:13.306Z,100647.66
2022-12-04T14:15:41.824Z,100646.94
2022-12-04T14:18:14.324Z,100667.19
2022-12-04T14:20:44.705Z,100654.44
2022-12-04T14:23:26.665Z,100668.31
2022-12-04T14:25:58.034Z,100672.75
2022-12-04T14:28:41.734Z,100671.91
2022-12-04T14:31:37.814Z,100682.88
2022-12-04T14:34:23.003Z,100677.19
2022-12-04T14:36:52.521Z,100697.59
2022-12-04T14:39:38.579Z,100695.78
2022-12-04T14:42:23.887Z,100717.13
2022-12-04T14:44:58.615Z,100709.84
2022-12-04T14:48:02.085Z,100716.19
2022-12-04T14:51:04.704Z,100708.09
2022-12-04T14:54:15.614Z,100705.31
2022-12-04T14:57:09.714Z,100705.41
2022-12-04T15:00:05.955Z,100705.50
2022-12-04T15:02:42.343Z,100703.56
2022-12-04T15:05:13.083Z,100711.78
2022-12-04T15:07:50.677Z,100705.75
2022-12-04T15:10:47.440Z,100720.81
2022-12-04T15:13:40.165Z,100711.91
2022-12-04T15:16:22.701Z,100720.13
2022-12-04T15:18:56.787Z,100719.78
2022-12-04T15:21:51.690Z,100719.28
2022-12-04T15:24:23.530Z,100718.16
2022-12-04T15:26:55.309Z,100720.72
2022-12-04T15:29:28.424Z,100729.06
2022-12-04T15:32:00.359Z,100736.19
2022-12-04T15:34:44.758Z,100738.63
2022-12-04T15:37:29.991Z,100742.50
2022-12-04T15:39:59.733Z,100746.16
2022-12-04T15:42:30.112Z,100745.88
2022-12-04T15:45:08.158Z,100746.50
2022-12-04T15:47:43.067Z,100758.22
2022-12-04T15:50:32.448Z,100761.00
2022-12-04T15:53:17.266Z,100765.47
2022-12-04T15:55:55.663Z,100765.72
2022-12-04T15:58:29.420Z,100770.19
2022-12-04T16:01:10.789Z,100764.03
2022-12-04T16:03:50.004Z,100772.97
2022-12-04T16:06:32.295Z,100778.06
2022-12-04T16:09:23.475Z,100772.25
2022-12-04T16:12:17.367Z,100774.16
2022-12-04T16:14:45.926Z,100783.56
2022-12-04T16:17:14.836Z,100789.22
2022-12-04T16:19:43.482Z,100799.50
2022-12-04T16:22:21.488Z,100805.88
2022-12-04T16:24:51.242Z,100801.50
2022-12-04T16:27:24.487Z,100801.75
2022-12-04T16:29:53.545Z,100804.00
2022-12-04T16:32:30.047Z,100804.00
2022-12-04T16:34:59.116Z,100800.75
2022-12-04T16:37:31.844Z,100798.47
2022-12-04T16:40:00.456Z,100799.81
2022-12-04T16:42:30.375Z,100809.25
2022-12-04T16:44:59.740Z,100817.13
2022-12-04T16:47:29.038Z,100829.69
2022-12-04T16:49:58.105Z,100829.09
2022-12-04T16:52:27.178Z,100830.19
2022-12-04T16:54:58.498Z,100832.88
2022-12-04T16:57:30.855Z,100837.47
2022-12-04T16:59:59.664Z,100845.56
2022-12-04T17:02:29.084Z,100849.16
2022-12-04T17:04:58.313Z,100842.53
2022-12-04T17:07:27.714Z,100845.06
2022-12-04T17:09:56.375Z,100836.38
2022-12-04T17:12:26.523Z,100840.00
2022-12-04T17:14:55.431Z,100848.34
2022-12-04T17:17:25.007Z,100858.13
2022-12-04T17:19:53.665Z,100857.53
2022-12-04T17:22:26.776Z,100855.13
2022-12-04T17:24:56.679Z,100856.69
2022-12-04T17:27:26.238Z,100852.69
2022-12-04T17:29:54.931Z,100850.66
2022-12-04T17:32:25.185Z,100851.72
2022-12-04T17:34:54.618Z,100850.50
2022-12-04T17:37:24.436Z,100861.13
2022-12-04T17:39:53.129Z,100861.44
2022-12-04T17:42:22.146Z,100858.88
2022-12-04T17:44:50.910Z,100859.50
2022-12-04T17:47:19.925Z,100858.88
2022-12-04T17:49:48.674Z,100856.22
2022-12-04T17:52:19.475Z,100863.34
2022-12-04T17:54:50.428Z,100853.34
2022-12-04T17:57:19.915Z,100868.19
2022-12-04T17:59:48.789Z,100865.09
2022-12-04T18:02:18.110Z,100865.31
2022-12-04T18:04:46.972Z,100880.31
2022-12-04T18:07:15.926Z,100882.63
2022-12-04T18:09:44.656Z,100875.97
2022-12-04T18:12:14.656Z,100892.06
2022-12-04T18:14:43.396Z,100884.56
2022-12-04T18:17:12.245Z,100880.34
2022-12-04T18:19:41.155Z,100887.84
2022-12-04T18:22:10.176Z,100891.84
2022-12-04T18:24:38.935Z,100901.50
2022-12-04T18:27:09.158Z,100901.00
2022-12-04T18:29:38.655Z,100897.50
2022-12-04T18:32:07.722Z,100903.09
2022-12-04T18:34:36.279Z,100899.09
2022-12-04T18:37:05.306Z,100900.06
2022-12-04T18:39:33.916Z,100899.59
2022-12-04T18:42:03.001Z,100903.41
2022-12-04T18:44:31.701Z,100898.38
2022-12-04T18:47:00.601Z,100901.13
2022-12-04T18:49:29.261Z,100901.25
2022-12-04T18:52:00.364Z,100900.53
2022-12-04T18:54:29.206Z,100890.16
2022-12-04T18:56:58.186Z,100895.22
2022-12-04T18:59:27.336Z,100897.75
2022-12-04T19:01:57.687Z,100906.94
2022-12-04T19:04:26.496Z,100915.78
2022-12-04T19:06:56.764Z,100923.50
2022-12-04T19:10:02.149Z,100924.59
2022-12-04T19:12:17.826Z,100916.84
2022-12-04T19:14:46.520Z,100933.31
2022-12-04T19:17:16.196Z,100928.09
2022-12-04T19:19:44.773Z,100945.50
2022-12-04T19:22:13.935Z,100937.03
2022-12-04T19:24:42.935Z,100949.13
2022-12-04T19:27:12.279Z,100936.91
2022-12-04T19:29:42.669Z,100937.88
2022-12-04T19:32:11.861Z,100937.16
2022-12-04T19:34:40.615Z,100951.53
2022-12-04T19:37:09.411Z,100963.63
2022-12-04T19:39:38.187Z,100971.75
2022-12-04T19:42:07.852Z,100971.13
2022-12-04T19:44:53.276Z,100970.25
2022-12-04T19:47:22.471Z,100971.38
2022-12-04T19:49:51.135Z,100966.41
2022-12-04T19:52:20.345Z,100973.78
2022-12-04T19:54:49.395Z,100976.44
2022-12-04T19:57:19.670Z,100985.63
2022-12-04T19:59:48.245Z,100996.47
2022-12-04T20:02:17.524Z,101002.06
2022-12-04T20:04:46.369Z,101010.97
2022-12-04T20:07:15.536Z,101005.91
2022-12-04T20:09:54.676Z,101016.75
2022-12-04T20:12:25.281Z,101023.16
2022-12-04T20:14:54.245Z,101010.94
2022-12-04T20:17:23.156Z,101013.00
2022-12-04T20:19:51.718Z,101009.00
2022-12-04T20:22:21.962Z,101015.25
2022-12-04T20:24:50.536Z,101019.63
2022-12-04T20:27:19.406Z,101013.34
2022-12-04T20:29:48.218Z,101018.31
2022-12-04T20:32:17.127Z,101017.97
2022-12-04T20:34:45.866Z,101013.13
2022-12-04T20:37:14.842Z,101018.59
2022-12-04T20:39:43.735Z,101020.66
2022-12-04T20:42:12.829Z,101012.22
2022-12-04T20:44:41.566Z,101011.63
2022-12-04T20:47:10.525Z,101019.25
2022-12-04T20:49:39.107Z,101024.56
2022-12-04T20:52:08.417Z,101025.66
2022-12-04T20:54:41.364Z,101034.69
2022-12-04T20:57:11.737Z,101025.03
2022-12-04T20:59:40.414Z,101016.44
2022-12-04T21:02:12.011Z,101016.34
2022-12-04T21:04:40.856Z,101013.19
2022-12-04T21:07:11.064Z,101008.97
2022-12-04T21:09:39.766Z,100997.44
2022-12-04T21:12:28.811Z,100992.38
2022-12-04T21:15:15.838Z,100989.00
2022-12-04T21:17:44.893Z,101011.38
2022-12-04T21:20:13.936Z,101028.38
2022-12-04T21:22:42.965Z,101033.06
2022-12-04T21:25:11.630Z,101026.31
2022-12-04T21:27:40.656Z,101023.91
2022-12-04T21:30:10.250Z,101027.63
2022-12-04T21:32:39.135Z,101024.22
2022-12-04T21:35:08.177Z,101010.47
2022-12-04T21:37:37.712Z,101016.97
2022-12-04T21:40:07.741Z,101016.00
2022-12-04T21:42:38.917Z,101019.81
2022-12-04T21:45:09.216Z,101026.13
2022-12-04T21:47:38.275Z,101025.34
2022-12-04T21:50:08.254Z,101030.66
2022-12-04T21:52:37.479Z,101023.31
2022-12-04T21:55:06.566Z,101023.75
2022-12-04T21:57:36.937Z,101025.22
2022-12-04T22:00:06.835Z,101022.06
2022-12-04T22:02:37.284Z,101018.59
2022-12-04T22:05:06.440Z,101011.72
2022-12-04T22:07:35.583Z,101024.03
2022-12-04T22:10:10.511Z,101021.38
2022-12-04T22:12:49.640Z,101019.69
2022-12-04T22:15:19.655Z,101023.47
2022-12-04T22:17:48.626Z,101030.81
2022-12-04T22:20:17.639Z,101031.75
2022-12-04T22:22:47.291Z,101030.09
2022-12-04T22:25:16.226Z,101027.44
2022-12-04T22:27:46.341Z,101033.06
2022-12-04T22:30:15.415Z,101024.38
2022-12-04T22:32:44.481Z,101026.31
2022-12-04T22:35:13.120Z,101020.38
2022-12-04T22:37:44.482Z,101007.56
2022-12-04T22:40:15.017Z,101008.44
2022-12-04T22:42:44.150Z,101011.19
2022-12-04T22:45:13.022Z,101006.09
2022-12-04T22:47:44.002Z,101008.75
2022-12-04T22:50:12.671Z,101009.84
2022-12-04T22:52:41.642Z,101004.72
2022-12-04T22:55:10.369Z,101011.13
2022-12-04T22:57:39.567Z,101015.81
2022-12-04T23:00:09.732Z,101019.56
2022-12-04T23:02:38.816Z,101021.47
2022-12-04T23:05:08.978Z,101020.66
2022-12-04T23:08:02.864Z,101015.78
2022-12-04T23:10:31.825Z,101012.28
2022-12-04T23:13:00.671Z,101003.56
2022-12-04T23:15:29.346Z,101008.16
2022-12-04T23:17:59.361Z,101011.03
2022-12-04T23:20:27.968Z,101019.13
2022-12-04T23:22:59.813Z,101017.53
2022-12-04T23:25:28.393Z,101011.59
2022-12-04T23:27:57.459Z,101011.00
2022-12-04T23:30:28.490Z,101003.78
2022-12-04T23:33:00.168Z,100995.91
2022-12-04T23:35:30.010Z,100999.66
2022-12-04T23:37:58.899Z,100992.63
2022-12-04T23:40:27.649Z,100996.47
2022-12-04T23:42:57.782Z,101014.09
2022-12-04T23:45:26.559Z,101029.19
2022-12-04T23:47:56.416Z,101022.31
2022-12-04T23:50:25.189Z,101014.78
2022-12-04T23:52:54.183Z,101023.69
2022-12-04T23:55:23.173Z,101022.66
2022-12-04T23:57:52.389Z,101019.25
